logo
Rechercher aéroport 
image banner adimage banner adimage banner ad
image banner ad

SIYG - Gorduras E Margarinas Especiais - Gme

Situé à Fortaleza, Brazil

ICAO - SIYG, IATA -

Données fournies par Airmate  

Information générale

Coordonnées: S3°43'9" W38°28'27"
Élévation : 78 feet MSL.
Variation magnétique : -20.720895405° East
Voir autres Aéroports à Ceará

Données opérationnelles

Special qualification required
Heure actuelle UTC:
Heure actuelle locale:
Météo à : SBFZ - Pinto Martins ( 9 km )
METAR: SBFZ 171700Z 13012KT 9999 BKN035 29/21 Q1010
TAF: TAF SBFZ 171439Z 1718/1818 12015KT 9999 FEW030 TN24/1809Z TX30/1817Z BECMG 1723/1801 18005KT TEMPO 1801/1807 4000 RA BKN010 BECMG 1810/1812 14015KT RMK PHI
Voir NOTAMs / SUP AIP / TFR affectant cet aéroport [VIEW]
Fréquences de communication: [VIEW]

Pistes:

Coordonnées de l'aéroport

Adresse: Fortaleza Brazil

Vue satellite de SIYG